createdAt,value
2019-03-08T00:00:33.256Z,99318.59
2019-03-08T00:03:02.408Z,99321.45
2019-03-08T00:05:31.550Z,99332.20
2019-03-08T00:08:00.663Z,99350.73
2019-03-08T00:10:29.733Z,99348.67
2019-03-08T00:12:58.806Z,99359.41
2019-03-08T00:15:27.942Z,99380.39
2019-03-08T00:17:57.074Z,99380.03
2019-03-08T00:20:26.181Z,99387.16
2019-03-08T00:22:55.298Z,99385.02
2019-03-08T00:25:24.341Z,99387.72
2019-03-08T00:27:53.461Z,99391.60
2019-03-08T00:30:22.601Z,99394.54
2019-03-08T00:34:00.198Z,99394.89
2019-03-08T00:36:57.731Z,99417.40
2019-03-08T00:39:37.471Z,99422.07
2019-03-08T00:42:22.457Z,99422.14
2019-03-08T00:45:46.443Z,99422.98
2019-03-08T00:48:18.411Z,99419.73
2019-03-08T00:50:47.549Z,99445.00
2019-03-08T00:53:16.670Z,99454.91
2019-03-08T00:55:45.770Z,99449.24
2019-03-08T00:58:14.870Z,99458.58
2019-03-08T01:00:43.928Z,99468.05
2019-03-08T01:03:12.722Z,99476.67
2019-03-08T01:05:41.686Z,99487.20
2019-03-08T01:08:10.601Z,99479.79
2019-03-08T01:10:39.498Z,99480.55
2019-03-08T01:13:13.716Z,99490.31
2019-03-08T01:15:54.577Z,99498.45
2019-03-08T01:18:23.548Z,99506.66
2019-03-08T01:20:52.505Z,99516.03
2019-03-08T01:23:21.406Z,99518.40
2019-03-08T01:25:50.345Z,99524.56
2019-03-08T01:28:19.192Z,99537.55
2019-03-08T01:30:48.054Z,99547.96
2019-03-08T01:33:17.183Z,99543.50
2019-03-08T01:35:46.130Z,99552.88
2019-03-08T01:38:15.017Z,99550.48
2019-03-08T01:40:43.882Z,99570.55
2019-03-08T01:43:12.789Z,99561.81
2019-03-08T01:45:45.532Z,99555.23
2019-03-08T01:48:30.895Z,99566.64
2019-03-08T01:51:02.894Z,99572.53
2019-03-08T01:53:37.675Z,99575.70
2019-03-08T01:59:14.578Z,99589.25
2019-03-08T02:01:51.467Z,99597.95
2019-03-08T02:04:29.608Z,99600.47
2019-03-08T02:07:01.308Z,99595.78
2019-03-08T02:09:30.180Z,99607.56
2019-03-08T02:12:12.425Z,99596.09
2019-03-08T02:14:34.627Z,99610.41
2019-03-08T02:17:03.507Z,99615.68
2019-03-08T02:19:32.382Z,99624.23
2019-03-08T02:22:15.696Z,99631.12
2019-03-08T02:25:19.442Z,99631.68
2019-03-08T02:27:51.106Z,99635.34
2019-03-08T02:30:20.026Z,99641.55
2019-03-08T02:32:49.034Z,99636.45
2019-03-08T02:38:38.526Z,99663.13
2019-03-08T02:41:11.675Z,99655.77
2019-03-08T02:43:41.314Z,99656.13
2019-03-08T02:46:10.649Z,99665.48
2019-03-08T02:48:40.974Z,99669.67
2019-03-08T02:51:10.415Z,99684.03
2019-03-08T02:53:39.738Z,99683.30
2019-03-08T02:56:08.904Z,99682.83
2019-03-08T02:58:38.122Z,99685.73
2019-03-08T03:01:07.326Z,99693.09
2019-03-08T03:03:36.512Z,99693.12
2019-03-08T03:06:05.675Z,99706.78
2019-03-08T03:09:53.651Z,99708.22
2019-03-08T03:12:24.976Z,99715.69
2019-03-08T03:15:00.785Z,99724.48
2019-03-08T03:17:32.506Z,99730.52
2019-03-08T03:20:01.346Z,99754.30
2019-03-08T03:22:30.302Z,99742.52
2019-03-08T03:24:59.174Z,99759.02
2019-03-08T03:27:28.031Z,99766.19
2019-03-08T03:29:57.039Z,99762.81
2019-03-08T03:32:25.891Z,99764.59
2019-03-08T03:35:04.892Z,99775.38
2019-03-08T03:38:30.904Z,99781.02
2019-03-08T03:40:39.518Z,99784.25
2019-03-08T03:43:19.728Z,99795.78
2019-03-08T03:46:00.039Z,99803.23
2019-03-08T03:52:08.498Z,99825.09
2019-03-08T03:54:50.209Z,99817.78
2019-03-08T03:58:07.752Z,99821.47
2019-03-08T04:00:59.595Z,99839.74
2019-03-08T04:07:30.627Z,99858.64
2019-03-08T04:10:36.470Z,99859.37
2019-03-08T04:13:13.869Z,99863.53
2019-03-08T04:16:23.107Z,99861.35
2019-03-08T04:18:50.233Z,99871.19
2019-03-08T04:21:19.135Z,99877.66
2019-03-08T04:23:48.099Z,99887.58
2019-03-08T04:26:24.853Z,99889.28
2019-03-08T04:29:00.818Z,99898.94
2019-03-08T04:31:32.274Z,99902.18
2019-03-08T04:34:04.824Z,99907.30
2019-03-08T04:36:37.107Z,99904.33
2019-03-08T04:39:06.302Z,99915.97
2019-03-08T04:41:35.293Z,99927.25
2019-03-08T04:44:04.220Z,99927.02
2019-03-08T04:46:43.933Z,99935.83
2019-03-08T04:49:12.609Z,99947.25
2019-03-08T04:55:08.156Z,99959.30
2019-03-08T04:57:43.179Z,99958.09
2019-03-08T05:00:22.942Z,99970.16
2019-03-08T05:03:01.436Z,99969.72
2019-03-08T05:05:35.113Z,99982.77
2019-03-08T05:08:19.563Z,99990.66
2019-03-08T05:11:07.106Z,99997.12
2019-03-08T05:13:41.998Z,99999.55
2019-03-08T05:16:29.938Z,100010.03
2019-03-08T05:19:07.423Z,100015.92
2019-03-08T05:21:51.845Z,100019.83
2019-03-08T05:24:36.647Z,100021.81
2019-03-08T05:27:13.274Z,100030.07
2019-03-08T05:29:42.235Z,100031.55
2019-03-08T05:32:11.131Z,100042.56
2019-03-08T05:34:49.635Z,100055.61
2019-03-08T05:37:20.479Z,100057.31
2019-03-08T05:40:00.917Z,100077.31
2019-03-08T05:42:37.096Z,100075.55
2019-03-08T05:45:14.707Z,100088.42
2019-03-08T05:47:49.328Z,100097.99
2019-03-08T05:50:22.547Z,100104.08
2019-03-08T05:52:59.960Z,100108.69
2019-03-08T05:55:31.664Z,100128.14
2019-03-08T05:58:00.652Z,100130.88
2019-03-08T06:00:32.375Z,100135.25
2019-03-08T06:02:59.674Z,100140.31
2019-03-08T06:05:39.649Z,100144.49
2019-03-08T06:08:12.770Z,100159.98
2019-03-08T06:10:44.359Z,100164.09
2019-03-08T06:13:13.291Z,100176.48
2019-03-08T06:15:51.539Z,100189.64
2019-03-08T06:19:05.937Z,100194.67
2019-03-08T06:22:14.687Z,100193.75
2019-03-08T06:25:22.984Z,100212.56
2019-03-08T06:28:05.522Z,100224.04
2019-03-08T06:30:36.576Z,100230.39
2019-03-08T06:33:09.379Z,100235.78
2019-03-08T06:35:39.157Z,100242.75
2019-03-08T06:38:08.444Z,100244.48
2019-03-08T06:40:37.748Z,100257.03
2019-03-08T06:43:06.948Z,100261.11
2019-03-08T06:45:36.076Z,100272.33
2019-03-08T06:51:46.657Z,100280.45
2019-03-08T06:54:24.698Z,100281.03
2019-03-08T07:00:40.506Z,100301.98
2019-03-08T07:03:18.432Z,100308.28
2019-03-08T07:06:53.329Z,100324.83
2019-03-08T07:13:20.266Z,100336.40
2019-03-08T07:17:01.899Z,100354.89
2019-03-08T07:19:40.979Z,100355.16
2019-03-08T07:25:51.446Z,100375.98
2019-03-08T07:28:41.911Z,100384.58
2019-03-08T07:31:38.547Z,100388.62
2019-03-08T07:34:21.667Z,100406.77
2019-03-08T07:37:00.963Z,100408.23
2019-03-08T07:39:40.800Z,100408.93
2019-03-08T07:42:29.017Z,100421.67
2019-03-08T07:45:05.175Z,100431.41
2019-03-08T07:47:39.857Z,100423.44
2019-03-08T07:50:31.205Z,100427.42
2019-03-08T07:53:06.339Z,100447.05
2019-03-08T07:55:53.206Z,100463.53
2019-03-08T07:58:33.362Z,100478.28
2019-03-08T08:01:10.890Z,100469.41
2019-03-08T08:03:48.760Z,100478.72
2019-03-08T08:06:26.010Z,100475.41
2019-03-08T08:09:13.097Z,100477.76
2019-03-08T08:12:00.088Z,100485.96
2019-03-08T08:14:53.335Z,100483.32
2019-03-08T08:17:44.524Z,100489.66
2019-03-08T08:20:35.539Z,100504.78
2019-03-08T08:23:34.074Z,100513.32
2019-03-08T08:26:06.814Z,100505.09
2019-03-08T08:28:52.283Z,100507.73
2019-03-08T08:31:39.008Z,100518.36
2019-03-08T08:34:15.106Z,100514.19
2019-03-08T08:36:58.592Z,100526.42
2019-03-08T08:40:02.202Z,100538.84
2019-03-08T08:42:53.571Z,100541.94
2019-03-08T08:45:48.535Z,100545.66
2019-03-08T08:48:31.248Z,100544.12
2019-03-08T08:51:10.445Z,100553.48
2019-03-08T08:53:53.115Z,100549.84
2019-03-08T08:56:52.990Z,100561.84
2019-03-08T08:59:29.061Z,100560.88
2019-03-08T09:02:15.397Z,100567.23
2019-03-08T09:05:09.234Z,100570.64
2019-03-08T09:11:47.162Z,100586.94
2019-03-08T09:14:18.431Z,100612.76
2019-03-08T09:17:05.118Z,100614.05
2019-03-08T09:19:59.370Z,100620.34
2019-03-08T09:22:43.630Z,100614.86
2019-03-08T09:25:20.357Z,100628.86
2019-03-08T09:28:07.185Z,100625.77
2019-03-08T09:31:35.585Z,100618.14
2019-03-08T09:38:59.204Z,100628.56
2019-03-08T09:42:18.803Z,100646.31
2019-03-08T09:45:32.890Z,100651.80
2019-03-08T09:48:11.902Z,100650.66
2019-03-08T09:50:46.407Z,100652.78
2019-03-08T09:53:19.589Z,100655.73
2019-03-08T09:56:22.059Z,100668.06
2019-03-08T09:59:19.071Z,100667.74
2019-03-08T10:05:47.235Z,100679.94
2019-03-08T10:08:42.204Z,100690.28
2019-03-08T10:12:33.127Z,100697.03
2019-03-08T10:15:19.715Z,100714.95
2019-03-08T10:18:40.326Z,100702.66
2019-03-08T10:21:52.925Z,100712.24
2019-03-08T10:25:04.383Z,100713.00
2019-03-08T10:27:40.627Z,100711.00
2019-03-08T10:30:17.122Z,100722.24
2019-03-08T10:32:57.780Z,100722.41
2019-03-08T10:35:57.724Z,100729.75
2019-03-08T10:38:48.892Z,100730.50
2019-03-08T10:41:37.718Z,100720.68
2019-03-08T10:44:29.181Z,100722.19
2019-03-08T10:47:34.888Z,100734.05
2019-03-08T10:50:07.575Z,100733.77
2019-03-08T10:53:09.141Z,100724.52
2019-03-08T10:56:03.642Z,100730.81
2019-03-08T10:59:16.580Z,100735.41
2019-03-08T11:02:17.417Z,100726.67
2019-03-08T11:05:04.342Z,100738.69
2019-03-08T11:07:52.720Z,100758.31
2019-03-08T11:10:44.498Z,100751.28
2019-03-08T11:13:27.487Z,100749.73
2019-03-08T11:16:04.689Z,100760.05
2019-03-08T11:19:08.312Z,100752.98
2019-03-08T11:21:46.443Z,100761.13
2019-03-08T11:24:40.728Z,100755.25
2019-03-08T11:27:53.734Z,100759.25
2019-03-08T11:30:54.165Z,100759.06
2019-03-08T11:33:29.687Z,100768.16
2019-03-08T11:36:44.173Z,100785.35
2019-03-08T11:39:30.963Z,100780.05
2019-03-08T11:42:23.565Z,100785.29
2019-03-08T11:45:23.661Z,100788.23
2019-03-08T11:48:17.163Z,100804.30
2019-03-08T11:51:03.355Z,100806.92
2019-03-08T11:53:59.663Z,100808.27
2019-03-08T11:57:02.100Z,100812.34
2019-03-08T12:00:09.602Z,100822.72
2019-03-08T12:06:24.525Z,100818.27
2019-03-08T12:09:22.236Z,100821.11
2019-03-08T12:12:26.778Z,100820.87
2019-03-08T12:15:30.648Z,100820.33
2019-03-08T12:18:53.361Z,100819.76
2019-03-08T12:21:54.195Z,100815.31
2019-03-08T12:25:06.474Z,100817.51
2019-03-08T12:27:53.318Z,100819.42
2019-03-08T12:30:38.594Z,100807.71
2019-03-08T12:33:51.604Z,100812.27
2019-03-08T12:36:51.969Z,100817.75
2019-03-08T12:39:52.911Z,100818.70
2019-03-08T12:42:40.802Z,100814.87
2019-03-08T12:45:57.719Z,100806.19
2019-03-08T12:52:29.517Z,100800.39
2019-03-08T12:55:18.653Z,100803.96
2019-03-08T12:58:11.833Z,100801.07
2019-03-08T13:01:17.700Z,100802.45
2019-03-08T13:04:15.030Z,100799.48
2019-03-08T13:07:38.302Z,100791.45
2019-03-08T13:10:18.098Z,100799.63
2019-03-08T13:13:13.633Z,100804.03
2019-03-08T13:16:06.605Z,100796.97
2019-03-08T13:18:55.511Z,100802.27
2019-03-08T13:21:44.603Z,100799.20
2019-03-08T13:24:25.758Z,100805.73
2019-03-08T13:27:11.970Z,100817.52
2019-03-08T13:29:52.148Z,100813.52
2019-03-08T13:32:31.751Z,100812.97
2019-03-08T13:35:03.696Z,100822.23
2019-03-08T13:37:51.854Z,100822.27
2019-03-08T13:40:32.683Z,100817.75
2019-03-08T13:43:16.893Z,100827.55
2019-03-08T13:45:42.851Z,100822.33
2019-03-08T13:48:23.726Z,100817.23
2019-03-08T13:51:07.104Z,100823.45
2019-03-08T13:53:39.163Z,100830.00
2019-03-08T13:56:24.844Z,100830.98
2019-03-08T13:59:30.672Z,100829.27
2019-03-08T14:02:25.678Z,100833.64
2019-03-08T14:05:02.383Z,100831.48
2019-03-08T14:07:37.842Z,100826.22
2019-03-08T14:10:22.263Z,100836.73
2019-03-08T14:13:02.407Z,100838.41
2019-03-08T14:16:02.234Z,100843.24
2019-03-08T14:18:42.032Z,100832.86
2019-03-08T14:21:22.496Z,100831.38
2019-03-08T14:23:58.925Z,100837.95
2019-03-08T14:26:41.923Z,100831.62
2019-03-08T14:29:22.317Z,100834.64
2019-03-08T14:32:05.564Z,100832.84
2019-03-08T14:34:53.742Z,100850.06
2019-03-08T14:37:30.846Z,100846.13
2019-03-08T14:40:24.783Z,100834.80
2019-03-08T14:43:17.012Z,100834.00
2019-03-08T14:46:21.022Z,100838.17
2019-03-08T14:49:01.553Z,100837.47
2019-03-08T14:52:01.022Z,100841.56
2019-03-08T14:54:32.998Z,100837.21
2019-03-08T14:57:09.308Z,100842.84
2019-03-08T14:59:58.592Z,100828.73
2019-03-08T15:02:29.499Z,100827.41
2019-03-08T15:05:10.691Z,100826.16
2019-03-08T15:07:44.798Z,100833.92
2019-03-08T15:10:20.956Z,100834.77
2019-03-08T15:13:00.857Z,100838.74
2019-03-08T15:15:45.930Z,100834.98
2019-03-08T15:18:37.845Z,100842.78
2019-03-08T15:21:25.012Z,100839.59
2019-03-08T15:23:57.555Z,100837.37
2019-03-08T15:26:34.284Z,100833.59
2019-03-08T15:29:13.628Z,100825.80
2019-03-08T15:32:07.031Z,100830.66
2019-03-08T15:34:40.600Z,100825.43
2019-03-08T15:37:07.190Z,100821.73
2019-03-08T15:39:52.935Z,100816.77
2019-03-08T15:42:27.562Z,100818.48
2019-03-08T15:45:01.872Z,100823.05
2019-03-08T15:47:41.002Z,100808.98
2019-03-08T15:50:24.698Z,100824.34
2019-03-08T15:53:05.938Z,100816.34
2019-03-08T15:55:53.018Z,100816.36
2019-03-08T15:58:22.902Z,100813.01
2019-03-08T16:00:58.044Z,100806.05
2019-03-08T16:03:50.848Z,100806.22
2019-03-08T16:06:26.449Z,100799.51
2019-03-08T16:09:12.068Z,100802.00
2019-03-08T16:12:00.189Z,100800.91
2019-03-08T16:14:39.591Z,100800.88
2019-03-08T16:17:31.322Z,100806.70
2019-03-08T16:20:07.725Z,100808.91
2019-03-08T16:22:51.248Z,100809.98
2019-03-08T16:25:32.460Z,100806.48
2019-03-08T16:28:34.502Z,100807.08
2019-03-08T16:31:25.554Z,100811.42
2019-03-08T16:34:04.318Z,100825.47
2019-03-08T16:36:58.042Z,100823.53
2019-03-08T16:39:38.917Z,100814.41
2019-03-08T16:42:42.006Z,100825.24
2019-03-08T16:45:41.844Z,100829.03
2019-03-08T16:48:36.540Z,100823.74
2019-03-08T16:51:57.579Z,100821.47
2019-03-08T16:55:02.741Z,100823.73
2019-03-08T16:57:56.105Z,100818.09
2019-03-08T17:00:52.170Z,100820.88
2019-03-08T17:03:49.425Z,100824.88
2019-03-08T17:06:50.382Z,100812.89
2019-03-08T17:09:44.882Z,100810.45
2019-03-08T17:12:40.502Z,100814.88
2019-03-08T17:15:42.843Z,100811.30
2019-03-08T17:18:38.786Z,100809.78
2019-03-08T17:21:43.040Z,100809.94
2019-03-08T17:25:04.332Z,100808.93
2019-03-08T17:27:58.708Z,100813.27
2019-03-08T17:31:11.581Z,100805.12
2019-03-08T17:34:21.057Z,100807.05
2019-03-08T17:40:34.490Z,100812.99
2019-03-08T17:43:48.828Z,100809.14
2019-03-08T17:46:34.778Z,100800.40
2019-03-08T17:50:03.057Z,100803.09
2019-03-08T17:52:51.674Z,100801.41
2019-03-08T17:55:43.681Z,100792.66
2019-03-08T17:58:36.330Z,100792.36
2019-03-08T18:01:47.172Z,100794.31
2019-03-08T18:04:32.721Z,100799.72
2019-03-08T18:07:20.571Z,100794.69
2019-03-08T18:10:23.073Z,100796.27
2019-03-08T18:13:20.859Z,100784.55
2019-03-08T18:16:18.555Z,100787.23
2019-03-08T18:19:43.412Z,100781.64
2019-03-08T18:22:28.063Z,100772.54
2019-03-08T18:25:50.602Z,100775.55
2019-03-08T18:28:40.188Z,100769.16
2019-03-08T18:32:02.779Z,100775.76
2019-03-08T18:34:53.880Z,100783.73
2019-03-08T18:38:00.758Z,100779.20
2019-03-08T18:40:57.373Z,100763.53
2019-03-08T18:44:00.063Z,100755.84
2019-03-08T18:46:44.810Z,100757.81
2019-03-08T18:49:34.378Z,100755.17
2019-03-08T18:52:29.627Z,100754.69
2019-03-08T18:55:36.204Z,100754.33
2019-03-08T18:58:26.551Z,100748.00
2019-03-08T19:02:08.439Z,100751.11
2019-03-08T19:04:50.118Z,100741.47
2019-03-08T19:07:38.880Z,100740.69
2019-03-08T19:10:43.748Z,100739.25
2019-03-08T19:13:38.039Z,100730.23
2019-03-08T19:16:28.025Z,100734.05
2019-03-08T19:19:59.549Z,100724.53
2019-03-08T19:22:58.633Z,100722.73
2019-03-08T19:25:47.644Z,100725.45
2019-03-08T19:29:23.058Z,100715.85
2019-03-08T19:32:14.934Z,100716.42
2019-03-08T19:35:11.950Z,100712.23
2019-03-08T19:38:03.888Z,100714.27
2019-03-08T19:44:21.799Z,100704.91
2019-03-08T19:48:03.072Z,100699.70
2019-03-08T19:50:58.566Z,100694.61
2019-03-08T19:53:56.134Z,100692.88
2019-03-08T19:57:44.386Z,100688.84
2019-03-08T20:07:20.543Z,100677.61
2019-03-08T20:10:49.537Z,100676.69
2019-03-08T20:17:22.345Z,100673.97
2019-03-08T20:20:27.585Z,100669.31
2019-03-08T20:23:33.603Z,100667.34
2019-03-08T20:26:37.554Z,100654.33
2019-03-08T20:29:47.949Z,100658.38
2019-03-08T20:32:50.651Z,100651.02
2019-03-08T20:35:47.255Z,100642.62
2019-03-08T20:39:01.257Z,100649.17
2019-03-08T20:41:47.946Z,100644.58
2019-03-08T20:44:28.949Z,100644.58
2019-03-08T20:47:02.068Z,100633.05
2019-03-08T20:49:31.025Z,100636.22
2019-03-08T20:52:00.497Z,100632.04
2019-03-08T20:54:29.581Z,100628.17
2019-03-08T20:56:58.583Z,100637.57
2019-03-08T20:59:27.513Z,100620.87
2019-03-08T21:01:56.444Z,100621.48
2019-03-08T21:04:25.371Z,100624.84
2019-03-08T21:06:54.265Z,100620.69
2019-03-08T21:09:23.638Z,100632.04
2019-03-08T21:11:52.582Z,100621.88
2019-03-08T21:15:11.585Z,100625.43
2019-03-08T21:17:49.481Z,100633.28
2019-03-08T21:20:18.635Z,100629.59
2019-03-08T21:22:48.199Z,100626.58
2019-03-08T21:25:17.914Z,100623.16
2019-03-08T21:27:47.685Z,100625.17
2019-03-08T21:30:17.787Z,100630.07
2019-03-08T21:32:51.128Z,100624.11
2019-03-08T21:35:20.925Z,100611.80
2019-03-08T21:37:51.942Z,100600.02
2019-03-08T21:40:25.887Z,100607.09
2019-03-08T21:42:55.270Z,100589.08
2019-03-08T21:45:24.181Z,100578.37
2019-03-08T21:47:57.272Z,100570.73
2019-03-08T21:50:26.733Z,100574.65
2019-03-08T21:52:56.952Z,100570.61
2019-03-08T21:55:32.347Z,100542.03
2019-03-08T21:58:31.041Z,100532.59
2019-03-08T22:01:00.125Z,100527.66
2019-03-08T22:03:31.480Z,100528.95
2019-03-08T22:09:09.653Z,100526.59
2019-03-08T22:09:21.029Z,100529.50
2019-03-08T22:12:15.570Z,100517.52
2019-03-08T22:14:45.588Z,100503.79
2019-03-08T22:17:15.537Z,100497.30
2019-03-08T22:19:45.431Z,100491.66
2019-03-08T22:22:14.975Z,100494.47
2019-03-08T22:24:45.125Z,100483.52
2019-03-08T22:27:14.428Z,100477.80
2019-03-08T22:29:44.893Z,100478.83
2019-03-08T22:32:15.175Z,100484.06
2019-03-08T22:34:44.837Z,100474.17
2019-03-08T22:37:14.956Z,100466.38
2019-03-08T22:39:45.014Z,100455.30
2019-03-08T22:42:13.957Z,100469.39
2019-03-08T22:44:44.212Z,100460.48
2019-03-08T22:47:13.935Z,100442.81
2019-03-08T22:49:47.631Z,100439.91
2019-03-08T22:52:17.075Z,100423.37
2019-03-08T22:54:46.756Z,100427.73
2019-03-08T22:57:16.706Z,100422.70
2019-03-08T23:00:31.975Z,100412.05
2019-03-08T23:03:02.638Z,100406.85
2019-03-08T23:05:32.911Z,100410.69
2019-03-08T23:13:09.637Z,100408.38
